sensor_id;sensor_type;location;lat;lon;timestamp;pressure;altitude;pressure_sealevel;temperature;humidity
21431;BME280;10876;49.038;10.608;2023-02-22T00:00:44;98971.81;;;1.42;100.00
21431;BME280;10876;49.038;10.608;2023-02-22T00:03:19;98970.72;;;1.43;100.00
21431;BME280;10876;49.038;10.608;2023-02-22T00:05:50;98966.31;;;1.37;100.00
21431;BME280;10876;49.038;10.608;2023-02-22T00:08:19;98976.38;;;1.24;100.00
21431;BME280;10876;49.038;10.608;2023-02-22T00:10:46;98978.06;;;1.13;100.00
21431;BME280;10876;49.038;10.608;2023-02-22T00:13:17;98973.31;;;1.04;100.00
21431;BME280;10876;49.038;10.608;2023-02-22T00:15:47;98980.81;;;0.73;100.00
21431;BME280;10876;49.038;10.608;2023-02-22T00:18:16;98975.84;;;0.53;100.00
21431;BME280;10876;49.038;10.608;2023-02-22T00:20:44;98968.47;;;0.49;100.00
21431;BME280;10876;49.038;10.608;2023-02-22T00:23:16;98970.88;;;0.33;100.00
21431;BME280;10876;49.038;10.608;2023-02-22T00:25:50;98983.34;;;0.51;100.00
21431;BME280;10876;49.038;10.608;2023-02-22T00:28:21;98987.00;;;0.45;100.00
21431;BME280;10876;49.038;10.608;2023-02-22T00:30:49;98978.59;;;0.41;100.00
21431;BME280;10876;49.038;10.608;2023-02-22T00:33:18;98981.56;;;0.57;100.00
21431;BME280;10876;49.038;10.608;2023-02-22T00:35:48;98982.94;;;0.71;100.00
21431;BME280;10876;49.038;10.608;2023-02-22T00:38:17;98979.88;;;0.79;100.00
21431;BME280;10876;49.038;10.608;2023-02-22T00:40:44;98975.81;;;0.94;100.00
21431;BME280;10876;49.038;10.608;2023-02-22T00:43:11;98985.41;;;1.01;100.00
21431;BME280;10876;49.038;10.608;2023-02-22T00:45:38;98980.25;;;1.00;100.00
21431;BME280;10876;49.038;10.608;2023-02-22T00:48:10;98978.13;;;1.02;100.00
21431;BME280;10876;49.038;10.608;2023-02-22T00:50:39;98979.59;;;0.93;100.00
21431;BME280;10876;49.038;10.608;2023-02-22T00:53:07;98979.00;;;0.90;100.00
21431;BME280;10876;49.038;10.608;2023-02-22T00:55:36;98984.28;;;0.85;100.00
21431;BME280;10876;49.038;10.608;2023-02-22T00:58:06;98978.63;;;0.99;100.00
21431;BME280;10876;49.038;10.608;2023-02-22T01:00:35;98988.84;;;1.13;100.00
21431;BME280;10876;49.038;10.608;2023-02-22T01:03:02;98987.66;;;1.21;100.00
21431;BME280;10876;49.038;10.608;2023-02-22T01:05:30;98990.00;;;1.01;100.00
21431;BME280;10876;49.038;10.608;2023-02-22T01:07:58;98979.75;;;1.03;100.00
21431;BME280;10876;49.038;10.608;2023-02-22T01:10:31;98971.59;;;0.98;100.00
21431;BME280;10876;49.038;10.608;2023-02-22T01:13:02;98973.34;;;0.75;100.00
21431;BME280;10876;49.038;10.608;2023-02-22T01:15:34;98965.72;;;0.72;100.00
21431;BME280;10876;49.038;10.608;2023-02-22T01:18:01;98966.28;;;0.74;100.00
21431;BME280;10876;49.038;10.608;2023-02-22T01:20:32;98959.75;;;0.70;100.00
21431;BME280;10876;49.038;10.608;2023-02-22T01:23:00;98963.53;;;0.69;100.00
21431;BME280;10876;49.038;10.608;2023-02-22T01:25:33;98958.91;;;0.41;100.00
21431;BME280;10876;49.038;10.608;2023-02-22T01:28:02;98958.19;;;0.45;100.00
21431;BME280;10876;49.038;10.608;2023-02-22T01:30:30;98952.78;;;0.45;100.00
21431;BME280;10876;49.038;10.608;2023-02-22T01:32:58;98953.63;;;0.46;100.00
21431;BME280;10876;49.038;10.608;2023-02-22T01:35:27;98954.44;;;0.47;100.00
21431;BME280;10876;49.038;10.608;2023-02-22T01:37:55;98952.59;;;0.35;100.00
21431;BME280;10876;49.038;10.608;2023-02-22T01:40:25;98946.94;;;0.49;100.00
21431;BME280;10876;49.038;10.608;2023-02-22T01:42:55;98951.53;;;0.36;100.00
21431;BME280;10876;49.038;10.608;2023-02-22T01:45:47;98957.50;;;0.38;100.00
21431;BME280;10876;49.038;10.608;2023-02-22T01:48:18;98959.75;;;0.30;100.00
21431;BME280;10876;49.038;10.608;2023-02-22T01:50:47;98949.00;;;0.30;100.00
21431;BME280;10876;49.038;10.608;2023-02-22T01:53:20;98945.97;;;0.26;100.00
21431;BME280;10876;49.038;10.608;2023-02-22T01:55:49;98952.50;;;0.30;100.00
21431;BME280;10876;49.038;10.608;2023-02-22T01:58:18;98954.56;;;0.40;100.00
21431;BME280;10876;49.038;10.608;2023-02-22T02:00:46;98950.41;;;0.32;100.00
21431;BME280;10876;49.038;10.608;2023-02-22T02:03:16;98944.19;;;0.20;100.00
21431;BME280;10876;49.038;10.608;2023-02-22T02:05:47;98935.09;;;0.21;100.00
21431;BME280;10876;49.038;10.608;2023-02-22T02:08:20;98934.81;;;0.22;100.00
21431;BME280;10876;49.038;10.608;2023-02-22T02:10:50;98929.88;;;0.31;100.00
21431;BME280;10876;49.038;10.608;2023-02-22T02:13:20;98931.66;;;0.26;100.00
21431;BME280;10876;49.038;10.608;2023-02-22T02:15:47;98923.69;;;0.31;100.00
21431;BME280;10876;49.038;10.608;2023-02-22T02:18:17;98930.31;;;0.52;100.00
21431;BME280;10876;49.038;10.608;2023-02-22T02:20:50;98930.97;;;0.59;100.00
21431;BME280;10876;49.038;10.608;2023-02-22T02:26:44;98926.94;;;0.73;100.00
21431;BME280;10876;49.038;10.608;2023-02-22T02:32:47;98915.06;;;0.57;100.00
21431;BME280;10876;49.038;10.608;2023-02-22T02:35:23;98908.34;;;0.60;100.00
21431;BME280;10876;49.038;10.608;2023-02-22T02:37:57;98899.81;;;0.51;100.00
21431;BME280;10876;49.038;10.608;2023-02-22T02:40:31;98888.94;;;0.29;100.00
21431;BME280;10876;49.038;10.608;2023-02-22T02:43:06;98893.25;;;0.30;100.00
21431;BME280;10876;49.038;10.608;2023-02-22T02:45:40;98881.06;;;0.28;100.00
21431;BME280;10876;49.038;10.608;2023-02-22T02:48:11;98872.19;;;0.27;100.00
21431;BME280;10876;49.038;10.608;2023-02-22T02:50:42;98868.41;;;0.28;100.00
21431;BME280;10876;49.038;10.608;2023-02-22T02:53:12;98866.34;;;0.18;100.00
21431;BME280;10876;49.038;10.608;2023-02-22T02:55:42;98857.34;;;0.13;100.00
21431;BME280;10876;49.038;10.608;2023-02-22T02:58:16;98857.25;;;0.08;100.00
21431;BME280;10876;49.038;10.608;2023-02-22T03:00:44;98859.75;;;-0.03;100.00
21431;BME280;10876;49.038;10.608;2023-02-22T03:03:28;98842.06;;;0.02;100.00
21431;BME280;10876;49.038;10.608;2023-02-22T03:06:16;98837.53;;;-0.10;100.00
21431;BME280;10876;49.038;10.608;2023-02-22T03:08:52;98838.22;;;-0.03;100.00
21431;BME280;10876;49.038;10.608;2023-02-22T03:11:27;98831.81;;;-0.13;100.00
21431;BME280;10876;49.038;10.608;2023-02-22T03:14:01;98827.25;;;-0.13;100.00
21431;BME280;10876;49.038;10.608;2023-02-22T03:16:34;98833.09;;;-0.16;100.00
21431;BME280;10876;49.038;10.608;2023-02-22T03:19:08;98827.03;;;-0.23;100.00
21431;BME280;10876;49.038;10.608;2023-02-22T03:21:43;98826.47;;;-0.25;100.00
21431;BME280;10876;49.038;10.608;2023-02-22T03:24:16;98825.75;;;-0.32;100.00
21431;BME280;10876;49.038;10.608;2023-02-22T03:26:48;98815.25;;;-0.34;100.00
21431;BME280;10876;49.038;10.608;2023-02-22T03:29:19;98809.50;;;-0.37;100.00
21431;BME280;10876;49.038;10.608;2023-02-22T08:26:48;98603.78;;;5.32;100.00
21431;BME280;10876;49.038;10.608;2023-02-22T08:33:13;98584.06;;;5.61;100.00
21431;BME280;10876;49.038;10.608;2023-02-22T08:35:44;98577.91;;;5.84;100.00
21431;BME280;10876;49.038;10.608;2023-02-22T08:38:18;98572.66;;;6.32;100.00
21431;BME280;10876;49.038;10.608;2023-02-22T08:40:46;98526.31;;;6.67;100.00
21431;BME280;10876;49.038;10.608;2023-02-22T08:43:15;98511.28;;;7.12;100.00
21431;BME280;10876;49.038;10.608;2023-02-22T08:45:42;98498.50;;;7.51;100.00
21431;BME280;10876;49.038;10.608;2023-02-22T08:48:09;98498.16;;;7.71;100.00
21431;BME280;10876;49.038;10.608;2023-02-22T08:50:36;98482.88;;;7.89;100.00
21431;BME280;10876;49.038;10.608;2023-02-22T08:53:06;98477.25;;;8.27;100.00
21431;BME280;10876;49.038;10.608;2023-02-22T08:55:35;98474.78;;;8.58;100.00
21431;BME280;10876;49.038;10.608;2023-02-22T08:58:03;98464.56;;;8.77;100.00
21431;BME280;10876;49.038;10.608;2023-02-22T09:00:35;98456.38;;;8.64;100.00
21431;BME280;10876;49.038;10.608;2023-02-22T09:03:04;98446.97;;;8.70;100.00
21431;BME280;10876;49.038;10.608;2023-02-22T09:05:36;98447.19;;;8.87;100.00
21431;BME280;10876;49.038;10.608;2023-02-22T09:08:19;98428.94;;;8.96;100.00
21431;BME280;10876;49.038;10.608;2023-02-22T09:10:55;98423.66;;;9.59;100.00
21431;BME280;10876;49.038;10.608;2023-02-22T09:13:23;98436.47;;;9.81;100.00
21431;BME280;10876;49.038;10.608;2023-02-22T09:15:52;98433.44;;;9.82;100.00
21431;BME280;10876;49.038;10.608;2023-02-22T09:18:22;98438.91;;;10.13;100.00
21431;BME280;10876;49.038;10.608;2023-02-22T09:20:56;98446.16;;;10.18;100.00
21431;BME280;10876;49.038;10.608;2023-02-22T09:23:24;98454.81;;;10.34;100.00
21431;BME280;10876;49.038;10.608;2023-02-22T09:25:52;98464.28;;;10.68;100.00
21431;BME280;10876;49.038;10.608;2023-02-22T09:28:20;98485.47;;;11.02;100.00
21431;BME280;10876;49.038;10.608;2023-02-22T09:30:48;98475.59;;;10.92;100.00
21431;BME280;10876;49.038;10.608;2023-02-22T09:33:18;98481.47;;;11.25;100.00
21431;BME280;10876;49.038;10.608;2023-02-22T09:35:46;98475.34;;;11.55;100.00
21431;BME280;10876;49.038;10.608;2023-02-22T09:38:16;98483.72;;;11.93;100.00
21431;BME280;10876;49.038;10.608;2023-02-22T09:40:45;98487.88;;;12.25;100.00
21431;BME280;10876;49.038;10.608;2023-02-22T09:46:09;98423.03;;;12.71;100.00
21431;BME280;10876;49.038;10.608;2023-02-22T09:48:57;98460.31;;;13.11;100.00
21431;BME280;10876;49.038;10.608;2023-02-22T09:51:27;98456.34;;;13.20;100.00
21431;BME280;10876;49.038;10.608;2023-02-22T09:53:58;98495.56;;;13.08;100.00
21431;BME280;10876;49.038;10.608;2023-02-22T09:56:27;98528.16;;;13.19;100.00
21431;BME280;10876;49.038;10.608;2023-02-22T09:58:59;98542.03;;;13.01;100.00
21431;BME280;10876;49.038;10.608;2023-02-22T10:01:30;98553.53;;;13.33;100.00
21431;BME280;10876;49.038;10.608;2023-02-22T10:04:04;98552.34;;;13.04;100.00
21431;BME280;10876;49.038;10.608;2023-02-22T10:06:32;98562.63;;;12.87;100.00
21431;BME280;10876;49.038;10.608;2023-02-22T10:09:02;98573.91;;;13.32;100.00
21431;BME280;10876;49.038;10.608;2023-02-22T10:11:45;98583.31;;;13.31;100.00
21431;BME280;10876;49.038;10.608;2023-02-22T10:14:44;98602.09;;;12.91;100.00
21431;BME280;10876;49.038;10.608;2023-02-22T10:17:21;98607.63;;;12.73;100.00
21431;BME280;10876;49.038;10.608;2023-02-22T10:20:03;98616.16;;;12.89;100.00
21431;BME280;10876;49.038;10.608;2023-02-22T10:22:46;98619.09;;;13.31;100.00
21431;BME280;10876;49.038;10.608;2023-02-22T10:25:21;98618.16;;;13.10;100.00
21431;BME280;10876;49.038;10.608;2023-02-22T10:27:54;98621.66;;;13.27;100.00
21431;BME280;10876;49.038;10.608;2023-02-22T10:30:24;98627.00;;;13.24;100.00
21431;BME280;10876;49.038;10.608;2023-02-22T10:32:57;98635.50;;;13.01;100.00
21431;BME280;10876;49.038;10.608;2023-02-22T10:35:31;98632.59;;;13.06;100.00
21431;BME280;10876;49.038;10.608;2023-02-22T10:38:01;98634.25;;;13.37;100.00
21431;BME280;10876;49.038;10.608;2023-02-22T10:40:32;98632.34;;;13.88;100.00
21431;BME280;10876;49.038;10.608;2023-02-22T10:43:03;98622.84;;;13.98;100.00
21431;BME280;10876;49.038;10.608;2023-02-22T10:45:32;98615.25;;;14.37;100.00
21431;BME280;10876;49.038;10.608;2023-02-22T10:48:05;98615.00;;;14.09;100.00
21431;BME280;10876;49.038;10.608;2023-02-22T10:50:38;98610.50;;;14.04;100.00
21431;BME280;10876;49.038;10.608;2023-02-22T10:53:06;98605.00;;;13.83;100.00
21431;BME280;10876;49.038;10.608;2023-02-22T10:55:32;98593.16;;;14.04;100.00
21431;BME280;10876;49.038;10.608;2023-02-22T10:58:02;98589.09;;;14.43;100.00
21431;BME280;10876;49.038;10.608;2023-02-22T11:00:33;98569.78;;;14.31;100.00
21431;BME280;10876;49.038;10.608;2023-02-22T11:03:04;98575.41;;;14.34;100.00
21431;BME280;10876;49.038;10.608;2023-02-22T11:05:35;98559.63;;;14.56;100.00
21431;BME280;10876;49.038;10.608;2023-02-22T11:08:23;98550.09;;;14.53;100.00
21431;BME280;10876;49.038;10.608;2023-02-22T11:10:51;98537.50;;;14.31;100.00
21431;BME280;10876;49.038;10.608;2023-02-22T11:13:24;98533.50;;;14.08;100.00
21431;BME280;10876;49.038;10.608;2023-02-22T11:15:51;98525.81;;;14.34;100.00
21431;BME280;10876;49.038;10.608;2023-02-22T11:18:24;98514.00;;;14.13;100.00
21431;BME280;10876;49.038;10.608;2023-02-22T11:20:59;98514.31;;;14.45;100.00
21431;BME280;10876;49.038;10.608;2023-02-22T11:23:28;98500.84;;;14.52;100.00
21431;BME280;10876;49.038;10.608;2023-02-22T11:26:02;98493.91;;;14.46;100.00
21431;BME280;10876;49.038;10.608;2023-02-22T11:28:30;98484.31;;;14.89;100.00
21431;BME280;10876;49.038;10.608;2023-02-22T11:31:08;98473.97;;;14.98;100.00
21431;BME280;10876;49.038;10.608;2023-02-22T11:33:36;98459.59;;;15.17;100.00
21431;BME280;10876;49.038;10.608;2023-02-22T11:36:05;98464.03;;;15.21;100.00
21431;BME280;10876;49.038;10.608;2023-02-22T11:38:52;98452.13;;;14.93;100.00
21431;BME280;10876;49.038;10.608;2023-02-22T11:41:24;98437.47;;;15.29;100.00
21431;BME280;10876;49.038;10.608;2023-02-22T11:43:52;98433.53;;;15.30;100.00
21431;BME280;10876;49.038;10.608;2023-02-22T11:46:21;98430.44;;;15.31;100.00
21431;BME280;10876;49.038;10.608;2023-02-22T11:48:56;98425.66;;;15.16;100.00
21431;BME280;10876;49.038;10.608;2023-02-22T11:51:42;98419.13;;;15.49;100.00
21431;BME280;10876;49.038;10.608;2023-02-22T11:54:23;98412.44;;;15.50;100.00
21431;BME280;10876;49.038;10.608;2023-02-22T11:57:04;98418.59;;;15.59;100.00
21431;BME280;10876;49.038;10.608;2023-02-22T11:59:36;98407.78;;;15.66;100.00
21431;BME280;10876;49.038;10.608;2023-02-22T12:02:22;98402.25;;;15.66;100.00
21431;BME280;10876;49.038;10.608;2023-02-22T12:05:05;98401.31;;;15.62;100.00
21431;BME280;10876;49.038;10.608;2023-02-22T12:07:49;98399.97;;;15.68;100.00
21431;BME280;10876;49.038;10.608;2023-02-22T12:10:28;98390.28;;;15.74;100.00
21431;BME280;10876;49.038;10.608;2023-02-22T12:13:11;98383.00;;;15.54;100.00
21431;BME280;10876;49.038;10.608;2023-02-22T12:15:46;98379.66;;;15.76;100.00
21431;BME280;10876;49.038;10.608;2023-02-22T12:18:20;98372.47;;;15.88;100.00
21431;BME280;10876;49.038;10.608;2023-02-22T12:20:52;98368.84;;;15.99;100.00
21431;BME280;10876;49.038;10.608;2023-02-22T12:23:24;98363.09;;;15.76;100.00
21431;BME280;10876;49.038;10.608;2023-02-22T12:26:00;98367.53;;;15.65;100.00
21431;BME280;10876;49.038;10.608;2023-02-22T12:28:32;98366.34;;;15.22;100.00
21431;BME280;10876;49.038;10.608;2023-02-22T12:31:12;98382.81;;;15.06;100.00
21431;BME280;10876;49.038;10.608;2023-02-22T12:33:46;98367.22;;;15.54;100.00
21431;BME280;10876;49.038;10.608;2023-02-22T12:36:18;98369.03;;;15.63;100.00
21431;BME280;10876;49.038;10.608;2023-02-22T12:38:51;98360.50;;;15.68;100.00
21431;BME280;10876;49.038;10.608;2023-02-22T12:41:25;98355.72;;;15.81;100.00
21431;BME280;10876;49.038;10.608;2023-02-22T12:44:00;98355.38;;;15.54;100.00
21431;BME280;10876;49.038;10.608;2023-02-22T12:46:32;98355.00;;;15.55;100.00
21431;BME280;10876;49.038;10.608;2023-02-22T12:49:06;98353.16;;;15.60;100.00
21431;BME280;10876;49.038;10.608;2023-02-22T12:51:43;98356.13;;;15.39;100.00
21431;BME280;10876;49.038;10.608;2023-02-22T12:54:15;98360.44;;;15.24;100.00
21431;BME280;10876;49.038;10.608;2023-02-22T12:56:49;98349.97;;;15.29;100.00
21431;BME280;10876;49.038;10.608;2023-02-22T12:59:20;98354.84;;;15.20;100.00
21431;BME280;10876;49.038;10.608;2023-02-22T13:01:51;98354.59;;;15.25;100.00
21431;BME280;10876;49.038;10.608;2023-02-22T13:04:20;98358.38;;;15.49;100.00
21431;BME280;10876;49.038;10.608;2023-02-22T13:06:58;98353.25;;;15.63;100.00
21431;BME280;10876;49.038;10.608;2023-02-22T13:09:55;98350.94;;;15.65;100.00
21431;BME280;10876;49.038;10.608;2023-02-22T13:12:37;98346.34;;;15.69;100.00
21431;BME280;10876;49.038;10.608;2023-02-22T13:15:13;98345.63;;;15.72;100.00
21431;BME280;10876;49.038;10.608;2023-02-22T13:17:51;98342.22;;;15.63;100.00
21431;BME280;10876;49.038;10.608;2023-02-22T13:20:27;98347.94;;;15.70;100.00
21431;BME280;10876;49.038;10.608;2023-02-22T13:23:00;98350.72;;;15.86;100.00
21431;BME280;10876;49.038;10.608;2023-02-22T13:25:32;98343.25;;;15.87;100.00
21431;BME280;10876;49.038;10.608;2023-02-22T13:28:15;98338.53;;;16.03;100.00
21431;BME280;10876;49.038;10.608;2023-02-22T13:30:53;98334.06;;;16.14;100.00
21431;BME280;10876;49.038;10.608;2023-02-22T13:33:38;98334.44;;;15.97;100.00
21431;BME280;10876;49.038;10.608;2023-02-22T13:36:24;98335.47;;;15.76;100.00
21431;BME280;10876;49.038;10.608;2023-02-22T13:39:10;98338.91;;;15.58;100.00
21431;BME280;10876;49.038;10.608;2023-02-22T13:41:54;98336.09;;;15.42;100.00
21431;BME280;10876;49.038;10.608;2023-02-22T13:44:55;98341.69;;;15.29;100.00
21431;BME280;10876;49.038;10.608;2023-02-22T13:47:48;98346.56;;;15.20;100.00
21431;BME280;10876;49.038;10.608;2023-02-22T13:53:47;98348.75;;;15.15;100.00
21431;BME280;10876;49.038;10.608;2023-02-22T13:56:18;98361.78;;;15.02;100.00
21431;BME280;10876;49.038;10.608;2023-02-22T13:58:49;98348.94;;;14.94;100.00
21431;BME280;10876;49.038;10.608;2023-02-22T14:01:37;98346.91;;;14.78;100.00
21431;BME280;10876;49.038;10.608;2023-02-22T14:04:37;98346.56;;;14.68;100.00
21431;BME280;10876;49.038;10.608;2023-02-22T14:10:48;98349.25;;;14.52;100.00
21431;BME280;10876;49.038;10.608;2023-02-22T14:13:16;98350.38;;;14.51;100.00
21431;BME280;10876;49.038;10.608;2023-02-22T14:16:16;98355.41;;;14.49;100.00
21431;BME280;10876;49.038;10.608;2023-02-22T14:18:47;98356.09;;;14.33;100.00
21431;BME280;10876;49.038;10.608;2023-02-22T14:21:16;98368.97;;;14.29;100.00
21431;BME280;10876;49.038;10.608;2023-02-22T14:23:46;98369.88;;;14.09;100.00
21431;BME280;10876;49.038;10.608;2023-02-22T14:26:16;98371.69;;;14.05;100.00
21431;BME280;10876;49.038;10.608;2023-02-22T14:28:52;98376.28;;;14.01;100.00
21431;BME280;10876;49.038;10.608;2023-02-22T14:31:21;98377.56;;;14.03;100.00
21431;BME280;10876;49.038;10.608;2023-02-22T14:33:59;98377.88;;;13.89;100.00
21431;BME280;10876;49.038;10.608;2023-02-22T14:36:31;98399.53;;;13.79;100.00
21431;BME280;10876;49.038;10.608;2023-02-22T14:39:09;98382.22;;;13.78;100.00
21431;BME280;10876;49.038;10.608;2023-02-22T14:41:40;98379.94;;;13.80;100.00
21431;BME280;10876;49.038;10.608;2023-02-22T14:44:09;98387.63;;;13.87;100.00
21431;BME280;10876;49.038;10.608;2023-02-22T14:46:40;98390.72;;;13.85;100.00
21431;BME280;10876;49.038;10.608;2023-02-22T14:49:12;98388.78;;;13.86;100.00
21431;BME280;10876;49.038;10.608;2023-02-22T14:51:50;98391.16;;;13.87;100.00
21431;BME280;10876;49.038;10.608;2023-02-22T14:54:24;98401.00;;;13.76;100.00
21431;BME280;10876;49.038;10.608;2023-02-22T14:57:00;98399.75;;;13.73;100.00
21431;BME280;10876;49.038;10.608;2023-02-22T14:59:47;98402.94;;;13.63;100.00
21431;BME280;10876;49.038;10.608;2023-02-22T15:02:17;98412.19;;;13.59;100.00
21431;BME280;10876;49.038;10.608;2023-02-22T15:04:53;98407.19;;;13.73;100.00
21431;BME280;10876;49.038;10.608;2023-02-22T15:07:24;98399.38;;;13.63;100.00
21431;BME280;10876;49.038;10.608;2023-02-22T15:10:15;98413.13;;;13.63;100.00
21431;BME280;10876;49.038;10.608;2023-02-22T15:12:59;98408.06;;;13.65;100.00
21431;BME280;10876;49.038;10.608;2023-02-22T15:15:38;98411.63;;;13.32;100.00
21431;BME280;10876;49.038;10.608;2023-02-22T15:18:18;98426.09;;;13.20;100.00
21431;BME280;10876;49.038;10.608;2023-02-22T15:20:50;98421.88;;;13.23;100.00
21431;BME280;10876;49.038;10.608;2023-02-22T15:23:22;98441.59;;;13.25;100.00
21431;BME280;10876;49.038;10.608;2023-02-22T15:25:50;98444.19;;;13.00;100.00
21431;BME280;10876;49.038;10.608;2023-02-22T15:28:17;98436.88;;;13.04;100.00
21431;BME280;10876;49.038;10.608;2023-02-22T15:30:45;98439.28;;;13.06;100.00
21431;BME280;10876;49.038;10.608;2023-02-22T15:33:14;98442.78;;;12.94;100.00
21431;BME280;10876;49.038;10.608;2023-02-22T15:35:42;98450.41;;;12.89;100.00
21431;BME280;10876;49.038;10.608;2023-02-22T15:38:19;98460.06;;;12.95;100.00
21431;BME280;10876;49.038;10.608;2023-02-22T15:40:58;98465.09;;;12.63;100.00
21431;BME280;10876;49.038;10.608;2023-02-22T15:43:25;98469.56;;;12.76;100.00
21431;BME280;10876;49.038;10.608;2023-02-22T15:45:55;98469.63;;;12.68;100.00
21431;BME280;10876;49.038;10.608;2023-02-22T15:48:23;98460.41;;;12.63;100.00
21431;BME280;10876;49.038;10.608;2023-02-22T15:51:00;98460.72;;;12.71;100.00
